createdAt,value
2018-12-17T00:00:12.266Z,98.14
2018-12-17T00:01:12.302Z,98.25
2018-12-17T00:02:12.255Z,98.25
2018-12-17T00:03:12.337Z,98.25
2018-12-17T00:04:12.256Z,98.46
2018-12-17T00:05:12.222Z,98.56
2018-12-17T00:06:12.255Z,98.35
2018-12-17T00:07:12.193Z,98.08
2018-12-17T00:08:12.260Z,98.35
2018-12-17T00:09:12.224Z,98.77
2018-12-17T00:10:12.171Z,98.46
2018-12-17T00:11:12.165Z,98.14
2018-12-17T00:12:16.507Z,98.35
2018-12-17T00:13:12.117Z,98.25
2018-12-17T00:14:12.131Z,98.46
2018-12-17T00:15:12.113Z,98.46
2018-12-17T00:16:12.091Z,98.46
2018-12-17T00:17:12.109Z,98.56
2018-12-17T00:18:12.068Z,98.35
2018-12-17T00:19:12.051Z,98.56
2018-12-17T00:20:12.046Z,98.04
2018-12-17T00:21:12.031Z,98.35
2018-12-17T00:22:12.052Z,98.46
2018-12-17T00:23:12.011Z,98.46
2018-12-17T00:24:11.996Z,98.14
2018-12-17T00:25:11.989Z,98.25
2018-12-17T00:26:11.980Z,98.35
2018-12-17T00:27:11.995Z,98.46
2018-12-17T00:28:11.954Z,98.35
2018-12-17T00:29:11.941Z,98.35
2018-12-17T00:30:11.933Z,98.35
2018-12-17T00:31:11.922Z,98.14
2018-12-17T00:32:11.939Z,98.14
2018-12-17T00:33:11.902Z,98.25
2018-12-17T00:34:11.927Z,98.35
2018-12-17T00:35:11.887Z,98.35
2018-12-17T00:36:11.874Z,98.56
2018-12-17T00:37:11.897Z,98.39
2018-12-17T00:38:11.843Z,98.46
2018-12-17T00:39:11.833Z,98.46
2018-12-17T00:40:11.824Z,98.46
2018-12-17T00:41:11.816Z,98.56
2018-12-17T00:42:11.807Z,98.66
2018-12-17T00:43:11.823Z,99.04
2018-12-17T00:44:11.788Z,99.08
2018-12-17T00:45:11.770Z,98.14
2018-12-17T00:46:11.759Z,98.14
2018-12-17T00:47:11.743Z,98.25
2018-12-17T00:48:11.759Z,98.04
2018-12-17T00:49:11.720Z,98.14
2018-12-17T00:50:11.709Z,98.14
2018-12-17T00:51:11.719Z,98.10
2018-12-17T00:52:11.693Z,97.72
2018-12-17T00:53:11.706Z,97.41
2018-12-17T00:54:11.672Z,98.25
2018-12-17T00:55:11.660Z,97.83
2018-12-17T00:56:11.659Z,97.83
2018-12-17T00:57:11.634Z,97.94
2018-12-17T00:58:15.097Z,97.94
2018-12-17T00:59:11.617Z,97.52
2018-12-17T01:00:11.602Z,97.62
2018-12-17T01:01:11.596Z,97.72
2018-12-17T01:02:11.576Z,97.72
2018-12-17T01:03:11.589Z,97.41
2018-12-17T01:04:11.565Z,97.83
2018-12-17T01:05:11.570Z,98.04
2018-12-17T01:06:11.538Z,97.94
2018-12-17T01:07:11.533Z,97.72
2018-12-17T01:08:11.550Z,97.94
2018-12-17T01:09:11.512Z,97.31
2018-12-17T01:10:11.527Z,97.10
2018-12-17T01:11:11.482Z,97.99
2018-12-17T01:12:11.470Z,97.89
2018-12-17T01:13:11.484Z,98.04
2018-12-17T01:14:11.446Z,98.04
2018-12-17T01:15:11.440Z,97.41
2018-12-17T01:16:11.429Z,98.14
2018-12-17T01:17:11.421Z,96.95
2018-12-17T01:18:11.436Z,98.04
2018-12-17T01:19:11.394Z,97.94
2018-12-17T01:20:11.409Z,98.14
2018-12-17T01:21:11.373Z,98.25
2018-12-17T01:22:11.357Z,97.20
2018-12-17T01:23:11.349Z,97.83
2018-12-17T01:24:11.337Z,97.10
2018-12-17T01:25:11.411Z,97.62
2018-12-17T01:26:11.320Z,98.04
2018-12-17T01:27:11.316Z,98.04
2018-12-17T01:28:11.296Z,97.31
2018-12-17T01:29:11.327Z,97.72
2018-12-17T01:30:11.307Z,97.72
2018-12-17T01:31:11.403Z,97.62
2018-12-17T01:32:11.248Z,97.62
2018-12-17T01:33:11.253Z,97.41
2018-12-17T01:34:11.232Z,97.62
2018-12-17T01:35:11.218Z,97.52
2018-12-17T01:36:11.244Z,97.41
2018-12-17T01:37:11.208Z,97.31
2018-12-17T01:38:11.183Z,97.41
2018-12-17T01:39:11.180Z,97.41
2018-12-17T01:40:11.165Z,97.41
2018-12-17T01:41:11.275Z,97.41
2018-12-17T01:42:11.142Z,97.62
2018-12-17T01:43:11.134Z,97.72
2018-12-17T01:45:12.265Z,97.52
2018-12-17T01:46:11.102Z,97.41
2018-12-17T01:47:11.088Z,97.52
2018-12-17T01:48:11.098Z,97.41
2018-12-17T01:49:11.073Z,97.41
2018-12-17T01:50:11.178Z,97.31
2018-12-17T01:51:11.044Z,97.83
2018-12-17T01:52:11.031Z,97.83
2018-12-17T01:53:11.020Z,97.72
2018-12-17T01:54:11.034Z,97.83
2018-12-17T01:55:11.041Z,97.27
2018-12-17T01:56:11.046Z,97.41
2018-12-17T01:57:11.059Z,97.58
2018-12-17T01:58:10.977Z,97.41
2018-12-17T01:59:10.952Z,97.68
2018-12-17T02:00:10.954Z,97.41
2018-12-17T02:01:10.976Z,96.95
2018-12-17T02:02:10.921Z,96.79
2018-12-17T02:03:10.915Z,97.00
2018-12-17T02:04:10.974Z,97.10
2018-12-17T02:05:10.917Z,97.00
2018-12-17T02:06:10.920Z,97.10
2018-12-17T02:07:10.875Z,96.79
2018-12-17T02:08:10.882Z,96.79
2018-12-17T02:09:10.877Z,96.79
2018-12-17T02:10:10.840Z,97.00
2018-12-17T02:11:10.852Z,97.83
2018-12-17T02:12:10.822Z,97.83
2018-12-17T02:13:10.835Z,97.41
2018-12-17T02:14:10.810Z,96.89
2018-12-17T02:15:10.789Z,96.85
2018-12-17T02:16:10.795Z,96.79
2018-12-17T02:17:10.791Z,97.10
2018-12-17T02:18:10.744Z,97.16
2018-12-17T02:19:10.744Z,96.26
2018-12-17T02:20:10.734Z,96.75
2018-12-17T02:21:10.740Z,96.69
2018-12-17T02:22:10.699Z,96.43
2018-12-17T02:23:10.686Z,96.37
2018-12-17T02:24:10.685Z,96.26
2018-12-17T02:25:10.677Z,96.37
2018-12-17T02:26:10.700Z,96.69
2018-12-17T02:27:10.645Z,96.22
2018-12-17T02:28:10.682Z,96.37
2018-12-17T02:29:10.631Z,96.16
2018-12-17T02:30:10.620Z,96.37
2018-12-17T02:31:10.606Z,96.53
2018-12-17T02:32:10.634Z,96.06
2018-12-17T02:33:10.581Z,96.33
2018-12-17T02:34:10.595Z,96.06
2018-12-17T02:35:10.564Z,96.16
2018-12-17T02:36:10.585Z,96.01
2018-12-17T02:37:10.562Z,96.12
2018-12-17T02:38:10.562Z,96.43
2018-12-17T02:39:10.512Z,96.01
2018-12-17T02:40:10.510Z,96.01
2018-12-17T02:41:10.501Z,95.85
2018-12-17T02:42:10.530Z,96.12
2018-12-17T02:43:10.495Z,95.91
2018-12-17T02:44:10.483Z,95.91
2018-12-17T02:45:10.451Z,95.81
2018-12-17T02:46:10.443Z,95.91
2018-12-17T02:47:10.452Z,95.91
2018-12-17T02:48:10.426Z,95.81
2018-12-17T02:49:10.409Z,96.79
2018-12-17T02:50:10.393Z,96.64
2018-12-17T02:51:10.388Z,96.53
2018-12-17T02:52:10.415Z,95.81
2018-12-17T02:53:10.392Z,95.81
2018-12-17T02:54:10.355Z,96.43
2018-12-17T02:55:10.356Z,95.91
2018-12-17T02:56:10.336Z,96.22
2018-12-17T02:57:10.351Z,96.12
2018-12-17T02:58:10.310Z,95.95
2018-12-17T02:59:10.291Z,96.22
2018-12-17T03:00:10.308Z,95.91
2018-12-17T03:01:10.281Z,96.01
2018-12-17T03:02:10.291Z,95.91
2018-12-17T03:03:10.283Z,96.53
2018-12-17T03:04:10.244Z,96.43
2018-12-17T03:05:10.233Z,96.64
2018-12-17T03:06:10.219Z,96.12
2018-12-17T03:07:10.209Z,96.01
2018-12-17T03:08:10.196Z,95.91
2018-12-17T03:09:10.241Z,96.12
2018-12-17T03:10:10.170Z,95.91
2018-12-17T03:11:10.159Z,95.91
2018-12-17T03:12:10.180Z,96.64
2018-12-17T03:13:10.172Z,96.22
2018-12-17T03:14:10.143Z,96.12
2018-12-17T03:15:10.123Z,96.01
2018-12-17T03:16:10.109Z,96.22
2018-12-17T03:17:10.098Z,96.12
2018-12-17T03:18:10.122Z,96.33
2018-12-17T03:19:10.098Z,96.06
2018-12-17T03:20:10.066Z,96.69
2018-12-17T03:21:10.055Z,95.95
2018-12-17T03:22:10.042Z,96.06
2018-12-17T03:23:10.032Z,95.95
2018-12-17T03:24:10.050Z,95.95
2018-12-17T03:25:10.008Z,95.95
2018-12-17T03:26:10.001Z,95.95
2018-12-17T03:27:09.989Z,95.95
2018-12-17T03:28:09.983Z,96.26
2018-12-17T03:29:09.992Z,95.95
2018-12-17T03:30:09.954Z,96.37
2018-12-17T03:31:09.946Z,96.26
2018-12-17T03:32:09.942Z,96.11
2018-12-17T03:33:09.933Z,96.00
2018-12-17T03:34:09.944Z,96.31
2018-12-17T03:35:09.900Z,96.31
2018-12-17T03:36:09.911Z,96.21
2018-12-17T03:37:09.916Z,96.83
2018-12-17T03:38:09.877Z,97.14
2018-12-17T03:39:09.865Z,97.14
2018-12-17T03:40:09.873Z,97.04
2018-12-17T03:41:09.838Z,97.67
2018-12-17T03:42:09.820Z,97.77
2018-12-17T03:43:09.825Z,97.67
2018-12-17T03:44:09.805Z,97.46
2018-12-17T03:45:09.818Z,97.77
2018-12-17T03:46:09.775Z,97.77
2018-12-17T03:47:09.766Z,98.29
2018-12-17T03:48:09.790Z,98.08
2018-12-17T03:49:09.744Z,98.14
2018-12-17T03:50:09.757Z,97.56
2018-12-17T03:51:09.721Z,97.67
2018-12-17T03:52:09.713Z,97.67
2018-12-17T03:53:09.702Z,97.56
2018-12-17T03:54:09.689Z,97.67
2018-12-17T03:55:09.716Z,97.67
2018-12-17T03:56:09.667Z,97.46
2018-12-17T03:57:09.689Z,98.08
2018-12-17T03:58:09.646Z,98.08
2018-12-17T03:59:09.637Z,98.08
2018-12-17T04:00:09.652Z,97.67
2018-12-17T04:01:09.622Z,98.08
2018-12-17T04:02:09.637Z,97.46
2018-12-17T04:03:09.598Z,98.08
2018-12-17T04:04:09.581Z,97.67
2018-12-17T04:05:09.573Z,98.08
2018-12-17T04:06:09.593Z,97.46
2018-12-17T04:07:09.560Z,97.83
2018-12-17T04:08:09.539Z,97.62
2018-12-17T04:09:09.526Z,98.04
2018-12-17T04:10:09.517Z,97.62
2018-12-17T04:11:09.526Z,97.52
2018-12-17T04:12:09.496Z,97.31
2018-12-17T04:13:09.492Z,97.35
2018-12-17T04:14:09.475Z,97.31
2018-12-17T04:15:09.460Z,97.52
2018-12-17T04:16:09.483Z,97.41
2018-12-17T04:17:09.440Z,97.62
2018-12-17T04:18:09.431Z,97.41
2018-12-17T04:19:09.414Z,97.41
2018-12-17T04:20:09.401Z,97.41
2018-12-17T04:21:09.418Z,97.41
2018-12-17T04:22:09.390Z,97.41
2018-12-17T04:23:09.379Z,97.52
2018-12-17T04:24:09.363Z,97.62
2018-12-17T04:26:10.501Z,97.62
2018-12-17T04:27:09.356Z,97.10
2018-12-17T04:28:09.315Z,97.10
2018-12-17T04:29:09.313Z,96.79
2018-12-17T04:30:09.294Z,97.10
2018-12-17T04:31:09.283Z,96.53
2018-12-17T04:32:09.383Z,96.69
2018-12-17T04:33:09.261Z,96.64
2018-12-17T04:34:09.252Z,96.16
2018-12-17T04:35:09.236Z,96.37
2018-12-17T04:36:09.239Z,96.69
2018-12-17T04:37:09.242Z,96.79
2018-12-17T04:38:09.223Z,96.69
2018-12-17T04:39:09.196Z,96.16
2018-12-17T04:40:09.282Z,96.58
2018-12-17T04:41:09.176Z,96.48
2018-12-17T04:42:09.214Z,96.69
2018-12-17T04:43:09.155Z,96.53
2018-12-17T04:44:09.189Z,96.06
2018-12-17T04:45:09.129Z,95.95
2018-12-17T04:46:09.160Z,96.16
2018-12-17T04:47:09.136Z,96.06
2018-12-17T04:48:09.118Z,96.26
2018-12-17T04:49:09.090Z,96.58
2018-12-17T04:50:09.077Z,96.43
2018-12-17T04:51:09.065Z,96.48
2018-12-17T04:52:09.078Z,96.43
2018-12-17T04:53:09.048Z,96.58
2018-12-17T04:54:09.057Z,96.79
2018-12-17T04:55:09.022Z,96.26
2018-12-17T04:56:09.007Z,96.58
2018-12-17T04:57:09.033Z,96.48
2018-12-17T04:58:09.018Z,97.10
2018-12-17T04:59:14.579Z,96.95
2018-12-17T05:00:09.963Z,96.89
2018-12-17T05:01:08.960Z,96.48
2018-12-17T05:02:08.943Z,96.85
2018-12-17T05:03:08.953Z,96.37
2018-12-17T05:04:08.945Z,96.79
2018-12-17T05:05:08.919Z,96.48
2018-12-17T05:06:08.907Z,96.16
2018-12-17T05:07:08.885Z,96.16
2018-12-17T05:08:08.911Z,96.58
2018-12-17T05:09:08.896Z,96.69
2018-12-17T05:10:08.861Z,96.37
2018-12-17T05:11:08.850Z,96.16
2018-12-17T05:12:08.834Z,96.69
2018-12-17T05:13:08.822Z,96.58
2018-12-17T05:14:08.829Z,96.58
2018-12-17T05:15:08.834Z,96.58
2018-12-17T05:16:08.795Z,96.79
2018-12-17T05:17:08.781Z,96.58
2018-12-17T05:18:08.769Z,96.58
2018-12-17T05:19:08.788Z,96.12
2018-12-17T05:20:08.742Z,96.06
2018-12-17T05:21:08.741Z,96.33
2018-12-17T05:22:08.740Z,96.16
2018-12-17T05:23:08.716Z,96.58
2018-12-17T05:24:08.724Z,96.58
2018-12-17T05:25:08.694Z,96.69
2018-12-17T05:26:08.689Z,96.58
2018-12-17T05:27:08.671Z,96.06
2018-12-17T05:28:08.657Z,96.06
2018-12-17T05:29:08.689Z,96.37
2018-12-17T05:30:08.665Z,96.58
2018-12-17T05:31:08.630Z,96.37
2018-12-17T05:32:08.621Z,96.16
2018-12-17T05:33:08.616Z,96.37
2018-12-17T05:34:08.588Z,96.06
2018-12-17T05:35:08.626Z,96.37
2018-12-17T05:36:08.568Z,96.01
2018-12-17T05:37:08.558Z,96.12
2018-12-17T05:38:08.550Z,96.53
2018-12-17T05:39:08.556Z,96.64
2018-12-17T05:40:08.552Z,96.75
2018-12-17T05:41:08.519Z,96.22
2018-12-17T05:42:08.498Z,96.43
2018-12-17T05:43:08.491Z,96.12
2018-12-17T05:44:08.485Z,96.22
2018-12-17T05:45:08.497Z,96.12
2018-12-17T05:46:08.463Z,96.01
2018-12-17T05:47:08.449Z,96.01
2018-12-17T05:48:08.440Z,96.53
2018-12-17T05:49:08.422Z,95.91
2018-12-17T05:50:08.447Z,96.01
2018-12-17T05:51:08.425Z,96.01
2018-12-17T05:52:08.402Z,96.01
2018-12-17T05:53:08.389Z,96.01
2018-12-17T05:54:08.367Z,96.12
2018-12-17T05:55:08.387Z,96.39
2018-12-17T05:56:08.351Z,96.12
2018-12-17T05:57:08.341Z,96.12
2018-12-17T05:58:08.327Z,96.01
2018-12-17T05:59:08.322Z,96.12
2018-12-17T06:00:08.337Z,96.43
2018-12-17T06:01:08.332Z,95.76
2018-12-17T06:02:08.287Z,96.18
2018-12-17T06:03:08.268Z,96.22
2018-12-17T06:04:08.281Z,96.53
2018-12-17T06:05:08.279Z,96.33
2018-12-17T06:06:08.246Z,96.53
2018-12-17T06:07:08.233Z,96.59
2018-12-17T06:08:08.223Z,96.43
2018-12-17T06:09:08.209Z,96.12
2018-12-17T06:10:08.220Z,95.91
2018-12-17T06:11:08.200Z,96.43
2018-12-17T06:12:08.175Z,96.01
2018-12-17T06:13:08.166Z,96.01
2018-12-17T06:14:08.147Z,96.12
2018-12-17T06:15:08.143Z,96.12
2018-12-17T06:16:08.167Z,96.12
2018-12-17T06:17:08.126Z,95.91
2018-12-17T06:18:08.111Z,96.64
2018-12-17T06:19:08.096Z,96.53
2018-12-17T06:20:08.087Z,96.43
2018-12-17T06:21:08.097Z,96.43
2018-12-17T06:22:08.063Z,96.95
2018-12-17T06:23:08.049Z,96.95
2018-12-17T06:24:08.043Z,97.06
2018-12-17T06:25:08.038Z,97.00
2018-12-17T06:26:08.046Z,96.85
2018-12-17T06:27:08.010Z,96.75
2018-12-17T06:28:07.994Z,96.95
2018-12-17T06:29:07.982Z,97.37
2018-12-17T06:30:07.982Z,97.16
2018-12-17T06:31:07.992Z,97.78
2018-12-17T06:32:07.953Z,97.78
2018-12-17T06:33:07.949Z,97.78
2018-12-17T06:34:07.926Z,97.27
2018-12-17T06:35:07.918Z,97.78
2018-12-17T06:36:07.952Z,97.16
2018-12-17T06:37:07.943Z,97.33
2018-12-17T06:38:07.881Z,97.01
2018-12-17T06:39:07.871Z,97.74
2018-12-17T06:40:10.412Z,97.16
2018-12-17T06:41:07.876Z,96.80
2018-12-17T06:42:07.878Z,96.70
2018-12-17T06:43:07.829Z,96.91
2018-12-17T06:44:07.831Z,96.91
2018-12-17T06:45:07.811Z,96.49
2018-12-17T06:46:07.799Z,96.18
2018-12-17T06:47:07.825Z,96.59
2018-12-17T06:48:07.777Z,96.39
2018-12-17T06:49:07.765Z,96.39
2018-12-17T06:50:07.766Z,95.97
2018-12-17T06:51:07.871Z,96.18
2018-12-17T06:52:07.774Z,96.18
2018-12-17T06:53:07.733Z,96.08
2018-12-17T06:54:07.709Z,96.28
2018-12-17T06:55:07.703Z,96.28
2018-12-17T06:56:07.688Z,96.08
2018-12-17T06:57:07.709Z,95.87
2018-12-17T06:58:07.683Z,96.49
2018-12-17T06:59:07.652Z,96.49
2018-12-17T07:00:07.641Z,96.49
2018-12-17T07:01:07.633Z,96.18
2018-12-17T07:02:07.642Z,96.08
2018-12-17T07:03:07.639Z,95.97
2018-12-17T07:04:07.603Z,95.87
2018-12-17T07:05:07.599Z,95.87
2018-12-17T07:06:07.582Z,96.28
2018-12-17T07:07:07.592Z,96.49
2018-12-17T07:08:07.583Z,96.08
2018-12-17T07:09:07.549Z,96.49
2018-12-17T07:10:07.530Z,96.49
2018-12-17T07:11:07.530Z,96.39
2018-12-17T07:12:07.538Z,96.39
2018-12-17T07:13:07.499Z,96.34
2018-12-17T07:14:07.490Z,96.18
2018-12-17T07:15:07.485Z,96.03
2018-12-17T07:16:07.465Z,96.34
2018-12-17T07:17:07.573Z,96.34
2018-12-17T07:18:07.468Z,96.55
2018-12-17T07:19:07.466Z,96.55
2018-12-17T07:20:07.428Z,96.45
2018-12-17T07:21:07.417Z,96.45
2018-12-17T07:22:07.407Z,96.45
2018-12-17T07:23:07.419Z,96.41
2018-12-17T07:24:07.377Z,96.51
2018-12-17T07:25:07.372Z,96.55
2018-12-17T07:26:07.368Z,96.41
2018-12-17T07:27:07.351Z,96.34
2018-12-17T07:28:07.368Z,96.30
2018-12-17T07:29:07.323Z,96.41
2018-12-17T07:30:07.313Z,96.41
2018-12-17T07:31:07.302Z,96.41
2018-12-17T07:32:07.318Z,95.99
2018-12-17T07:33:07.281Z,96.41
2018-12-17T07:34:07.316Z,96.51
2018-12-17T07:35:07.265Z,96.51
2018-12-17T07:36:07.249Z,96.41
2018-12-17T07:37:07.254Z,96.51
2018-12-17T07:38:07.256Z,96.30
2018-12-17T07:39:07.243Z,96.51
2018-12-17T07:40:07.202Z,96.20
2018-12-17T07:41:07.203Z,96.51
2018-12-17T07:42:07.185Z,96.51
2018-12-17T07:43:07.202Z,96.61
2018-12-17T07:44:07.168Z,96.30
2018-12-17T07:45:07.157Z,96.25
2018-12-17T07:46:07.142Z,96.36
2018-12-17T07:47:07.128Z,96.30
2018-12-17T07:48:07.155Z,96.98
2018-12-17T07:49:07.109Z,96.57
2018-12-17T07:50:07.112Z,96.78
2018-12-17T07:51:07.081Z,96.98
2018-12-17T07:52:07.078Z,96.78
2018-12-17T07:53:07.112Z,96.67
2018-12-17T07:54:07.048Z,96.88
2018-12-17T07:55:07.053Z,96.82
2018-12-17T07:56:07.031Z,96.57
2018-12-17T07:57:07.019Z,96.88
2018-12-17T07:58:07.003Z,96.82
2018-12-17T07:59:07.032Z,96.88
2018-12-17T08:00:07.007Z,96.78
2018-12-17T08:01:06.979Z,96.88
2018-12-17T08:02:06.970Z,96.78
2018-12-17T08:03:06.949Z,96.57
2018-12-17T08:04:07.109Z,96.88
2018-12-17T08:05:06.954Z,96.92
2018-12-17T08:06:06.920Z,96.78
2018-12-17T08:07:06.906Z,96.78
2018-12-17T08:08:06.898Z,96.78
2018-12-17T08:09:06.921Z,97.40
2018-12-17T08:10:06.876Z,97.19
2018-12-17T08:11:06.868Z,96.98
2018-12-17T08:12:06.855Z,97.09
2018-12-17T08:13:06.846Z,97.56
2018-12-17T08:14:06.863Z,96.98
2018-12-17T08:15:06.820Z,96.88
2018-12-17T08:16:06.899Z,97.50
2018-12-17T08:17:06.800Z,97.56
2018-12-17T08:18:06.809Z,96.88
2018-12-17T08:19:06.808Z,96.94
2018-12-17T08:20:06.794Z,96.88
2018-12-17T08:21:06.758Z,96.94
2018-12-17T08:22:06.744Z,96.73
2018-12-17T08:23:06.731Z,96.42
2018-12-17T08:24:06.720Z,96.21
2018-12-17T08:25:06.749Z,96.11
2018-12-17T08:26:06.702Z,96.83
2018-12-17T08:27:06.698Z,96.31
2018-12-17T08:28:06.680Z,96.94
2018-12-17T08:29:06.671Z,96.73
2018-12-17T08:30:06.692Z,96.31
2018-12-17T08:31:06.655Z,96.21
2018-12-17T08:32:06.635Z,96.27
2018-12-17T08:33:06.623Z,96.73
2018-12-17T08:34:06.637Z,96.52
2018-12-17T08:35:06.608Z,96.21
2018-12-17T08:36:06.754Z,96.27
2018-12-17T08:37:06.579Z,96.79
2018-12-17T08:38:06.569Z,96.37
2018-12-17T08:39:06.558Z,96.79
2018-12-17T08:40:06.543Z,96.27
2018-12-17T08:41:06.572Z,96.37
2018-12-17T08:42:06.540Z,95.81
2018-12-17T08:43:06.526Z,96.02
2018-12-17T08:44:06.506Z,96.12
2018-12-17T08:45:06.489Z,96.17
2018-12-17T08:46:06.510Z,95.92
2018-12-17T08:47:06.476Z,95.81
2018-12-17T08:48:06.459Z,96.23
2018-12-17T08:49:06.446Z,95.71
2018-12-17T08:50:06.459Z,95.81
2018-12-17T08:51:06.453Z,95.71
2018-12-17T08:52:06.418Z,95.56
2018-12-17T08:53:06.410Z,95.87
2018-12-17T08:54:06.401Z,95.67
2018-12-17T08:55:06.383Z,95.87
2018-12-17T08:56:06.397Z,95.46
2018-12-17T08:57:06.365Z,96.08
2018-12-17T08:58:06.357Z,95.77
2018-12-17T08:59:06.350Z,95.98
2018-12-17T09:00:11.024Z,95.77
2018-12-17T09:01:07.347Z,95.67
2018-12-17T09:02:06.343Z,96.08
2018-12-17T09:03:06.297Z,95.67
2018-12-17T09:04:06.287Z,96.08
2018-12-17T09:05:06.278Z,96.08
2018-12-17T09:06:06.289Z,95.72
2018-12-17T09:07:06.261Z,96.03
2018-12-17T09:08:06.270Z,95.72
2018-12-17T09:09:06.268Z,95.83
2018-12-17T09:10:06.224Z,95.72
2018-12-17T09:11:06.212Z,96.14
2018-12-17T09:12:06.234Z,95.72
2018-12-17T09:13:06.198Z,95.62
2018-12-17T09:14:06.172Z,96.24
2018-12-17T09:15:06.170Z,95.51
2018-12-17T09:16:06.160Z,96.03
2018-12-17T09:17:06.203Z,95.41
2018-12-17T09:18:07.278Z,95.57
2018-12-17T09:19:06.124Z,95.31
2018-12-17T09:20:06.110Z,95.47
2018-12-17T09:21:06.107Z,95.31
2018-12-17T09:22:06.093Z,95.51
2018-12-17T09:23:06.101Z,95.06
2018-12-17T09:24:06.070Z,95.26
2018-12-17T09:25:06.053Z,95.37
2018-12-17T09:26:06.045Z,95.57
2018-12-17T09:27:06.045Z,95.72
2018-12-17T09:28:06.057Z,95.68
2018-12-17T09:29:06.013Z,95.16
2018-12-17T09:30:06.018Z,95.57
2018-12-17T09:31:05.998Z,95.37
2018-12-17T09:32:05.991Z,95.37
2018-12-17T09:33:06.008Z,95.57
2018-12-17T09:34:05.966Z,95.47
2018-12-17T09:35:05.941Z,95.37
2018-12-17T09:36:05.935Z,95.68
2018-12-17T09:37:05.934Z,95.47
2018-12-17T09:38:05.945Z,95.47
2018-12-17T09:39:05.902Z,95.68
2018-12-17T09:40:05.886Z,95.47
2018-12-17T09:41:05.877Z,95.37
2018-12-17T09:42:05.868Z,95.57
2018-12-17T09:43:05.861Z,95.37
2018-12-17T09:44:05.884Z,95.68
2018-12-17T09:45:05.838Z,95.78
2018-12-17T09:46:05.825Z,95.95
2018-12-17T09:47:05.872Z,95.84
2018-12-17T09:48:05.802Z,95.12
2018-12-17T09:49:05.819Z,96.05
2018-12-17T09:50:05.777Z,95.32
2018-12-17T09:51:05.772Z,95.43
2018-12-17T09:52:05.762Z,95.74
2018-12-17T09:53:05.751Z,95.95
2018-12-17T09:54:05.759Z,95.64
2018-12-17T09:55:05.728Z,95.68
2018-12-17T09:56:05.717Z,95.74
2018-12-17T09:57:05.703Z,95.64
2018-12-17T09:58:05.765Z,95.43
2018-12-17T09:59:05.752Z,95.84
2018-12-17T10:00:05.687Z,95.74
2018-12-17T10:01:05.721Z,96.15
2018-12-17T10:02:05.670Z,96.05
2018-12-17T10:03:05.670Z,96.05
2018-12-17T10:04:05.665Z,95.95
2018-12-17T10:05:05.619Z,96.36
2018-12-17T10:06:05.621Z,96.36
2018-12-17T10:07:05.595Z,96.26
2018-12-17T10:08:05.586Z,96.57
2018-12-17T10:09:05.614Z,97.19
2018-12-17T10:10:05.602Z,96.98
2018-12-17T10:11:05.559Z,96.78
2018-12-17T10:12:05.541Z,97.60
2018-12-17T10:13:05.533Z,96.47
2018-12-17T10:14:05.549Z,97.19
2018-12-17T10:15:05.537Z,97.09
2018-12-17T10:16:05.504Z,97.09
2018-12-17T10:17:05.491Z,96.78
2018-12-17T10:18:05.474Z,97.50
2018-12-17T10:19:05.479Z,96.78
2018-12-17T10:20:05.479Z,96.88
2018-12-17T10:21:05.453Z,96.78
2018-12-17T10:22:05.439Z,96.88
2018-12-17T10:23:05.423Z,96.83
2018-12-17T10:24:05.418Z,97.45
2018-12-17T10:25:05.436Z,96.88
2018-12-17T10:26:05.388Z,96.57
2018-12-17T10:27:05.388Z,96.57
2018-12-17T10:28:05.379Z,97.45
2018-12-17T10:29:05.365Z,97.45
2018-12-17T10:30:05.402Z,96.98
2018-12-17T10:31:05.337Z,96.73
2018-12-17T10:32:05.330Z,96.83
2018-12-17T10:33:05.314Z,97.45
2018-12-17T10:34:05.309Z,97.56
2018-12-17T10:35:05.294Z,96.83
2018-12-17T10:36:05.323Z,97.25
2018-12-17T10:37:05.270Z,97.35
2018-12-17T10:38:05.261Z,96.73
2018-12-17T10:39:05.246Z,96.89
2018-12-17T10:40:05.262Z,97.14
2018-12-17T10:41:05.228Z,96.83
2018-12-17T10:42:05.217Z,96.17
2018-12-17T10:43:05.198Z,96.06
2018-12-17T10:44:05.194Z,96.06
2018-12-17T10:45:05.219Z,96.48
2018-12-17T10:46:05.171Z,96.79
2018-12-17T10:47:05.161Z,96.79
2018-12-17T10:48:05.212Z,96.12
2018-12-17T10:49:05.138Z,96.17
2018-12-17T10:50:05.134Z,95.81
2018-12-17T10:51:05.142Z,95.71
2018-12-17T10:52:05.107Z,96.44
2018-12-17T10:53:05.094Z,95.81
2018-12-17T10:54:05.086Z,95.92
2018-12-17T10:55:05.066Z,95.71
2018-12-17T10:56:05.141Z,95.81
2018-12-17T10:57:05.054Z,95.81
2018-12-17T10:58:05.039Z,96.12
2018-12-17T10:59:05.028Z,95.81
2018-12-17T11:00:05.014Z,95.67
2018-12-17T11:01:05.033Z,96.08
2018-12-17T11:02:04.992Z,95.46
2018-12-17T11:03:04.987Z,95.98
2018-12-17T11:04:04.984Z,95.40
2018-12-17T11:05:04.959Z,95.19
2018-12-17T11:06:05.012Z,95.67
2018-12-17T11:07:04.941Z,96.02
2018-12-17T11:08:04.930Z,96.02
2018-12-17T11:09:04.928Z,95.40
2018-12-17T11:10:04.912Z,95.61
2018-12-17T11:11:04.924Z,95.25
2018-12-17T11:12:04.913Z,95.50
2018-12-17T11:13:04.884Z,95.50
2018-12-17T11:14:04.875Z,95.46
2018-12-17T11:15:04.854Z,95.56
2018-12-17T11:16:04.881Z,95.81
2018-12-17T11:17:04.845Z,95.46
2018-12-17T11:18:04.833Z,95.50
2018-12-17T11:19:04.827Z,95.77
2018-12-17T11:20:04.816Z,95.92
2018-12-17T11:21:04.829Z,95.50
2018-12-17T11:22:04.786Z,95.61
2018-12-17T11:23:04.776Z,95.40
2018-12-17T11:24:04.772Z,95.61
2018-12-17T11:25:04.754Z,95.61
2018-12-17T11:26:04.786Z,95.50
2018-12-17T11:27:04.768Z,95.87
2018-12-17T11:28:04.733Z,95.92
2018-12-17T11:29:04.738Z,96.12
2018-12-17T11:30:04.716Z,95.87
2018-12-17T11:31:04.705Z,95.77
2018-12-17T11:32:11.488Z,95.87
2018-12-17T11:33:05.668Z,95.77
2018-12-17T11:34:04.671Z,95.77
2018-12-17T11:35:04.784Z,95.31
2018-12-17T11:36:04.646Z,95.83
2018-12-17T11:37:04.873Z,95.10
2018-12-17T11:38:04.626Z,95.10
2018-12-17T11:39:04.607Z,95.42
2018-12-17T11:40:04.601Z,95.21
2018-12-17T11:41:04.596Z,95.31
2018-12-17T11:42:04.619Z,95.31
2018-12-17T11:43:04.580Z,95.42
2018-12-17T11:44:04.558Z,95.21
2018-12-17T11:45:04.551Z,95.21
2018-12-17T11:46:04.532Z,95.31
2018-12-17T11:47:04.526Z,95.42
2018-12-17T11:48:04.535Z,95.10
